sensor_id;sensor_type;location;lat;lon;timestamp;P1;durP1;ratioP1;P2;durP2;ratioP2
11791;SDS011;5953;52.372;9.918;2024-03-17T00:02:02;9.50;;;2.77;;
11791;SDS011;5953;52.372;9.918;2024-03-17T00:04:30;10.60;;;2.60;;
11791;SDS011;5953;52.372;9.918;2024-03-17T00:06:57;11.63;;;3.03;;
11791;SDS011;5953;52.372;9.918;2024-03-17T00:09:24;18.23;;;2.80;;
11791;SDS011;5953;52.372;9.918;2024-03-17T00:11:50;11.70;;;2.90;;
11791;SDS011;5953;52.372;9.918;2024-03-17T00:14:17;9.77;;;2.40;;
11791;SDS011;5953;52.372;9.918;2024-03-17T00:16:43;9.87;;;2.37;;
11791;SDS011;5953;52.372;9.918;2024-03-17T00:19:10;8.87;;;2.23;;
11791;SDS011;5953;52.372;9.918;2024-03-17T00:21:36;12.77;;;2.30;;
11791;SDS011;5953;52.372;9.918;2024-03-17T00:24:04;11.10;;;2.33;;
11791;SDS011;5953;52.372;9.918;2024-03-17T00:26:31;8.20;;;2.27;;
11791;SDS011;5953;52.372;9.918;2024-03-17T00:29:02;8.67;;;2.33;;
11791;SDS011;5953;52.372;9.918;2024-03-17T00:31:28;7.93;;;1.97;;
11791;SDS011;5953;52.372;9.918;2024-03-17T00:33:57;10.50;;;2.13;;
11791;SDS011;5953;52.372;9.918;2024-03-17T00:36:23;8.30;;;2.40;;
11791;SDS011;5953;52.372;9.918;2024-03-17T00:38:50;12.30;;;2.50;;
11791;SDS011;5953;52.372;9.918;2024-03-17T00:41:18;5.43;;;1.77;;
11791;SDS011;5953;52.372;9.918;2024-03-17T00:43:46;7.20;;;2.63;;
11791;SDS011;5953;52.372;9.918;2024-03-17T00:46:12;9.27;;;2.60;;
11791;SDS011;5953;52.372;9.918;2024-03-17T00:48:39;11.50;;;2.67;;
11791;SDS011;5953;52.372;9.918;2024-03-17T00:51:05;10.47;;;2.20;;
11791;SDS011;5953;52.372;9.918;2024-03-17T00:53:32;9.17;;;2.17;;
11791;SDS011;5953;52.372;9.918;2024-03-17T00:55:57;11.43;;;3.07;;
11791;SDS011;5953;52.372;9.918;2024-03-17T00:58:27;10.83;;;2.20;;
11791;SDS011;5953;52.372;9.918;2024-03-17T01:00:54;8.83;;;2.37;;
11791;SDS011;5953;52.372;9.918;2024-03-17T01:03:20;10.20;;;2.03;;
11791;SDS011;5953;52.372;9.918;2024-03-17T01:05:47;9.20;;;2.30;;
11791;SDS011;5953;52.372;9.918;2024-03-17T01:08:15;5.90;;;1.87;;
11791;SDS011;5953;52.372;9.918;2024-03-17T01:10:42;11.20;;;2.93;;
11791;SDS011;5953;52.372;9.918;2024-03-17T01:13:10;6.20;;;2.33;;
11791;SDS011;5953;52.372;9.918;2024-03-17T01:15:38;10.30;;;2.77;;
11791;SDS011;5953;52.372;9.918;2024-03-17T01:18:05;9.37;;;3.30;;
11791;SDS011;5953;52.372;9.918;2024-03-17T01:20:32;12.33;;;4.13;;
11791;SDS011;5953;52.372;9.918;2024-03-17T01:22:59;13.30;;;4.20;;
11791;SDS011;5953;52.372;9.918;2024-03-17T01:25:25;12.70;;;3.93;;
11791;SDS011;5953;52.372;9.918;2024-03-17T01:27:52;13.03;;;3.90;;
11791;SDS011;5953;52.372;9.918;2024-03-17T01:30:18;8.97;;;3.47;;
11791;SDS011;5953;52.372;9.918;2024-03-17T01:32:46;9.93;;;3.00;;
11791;SDS011;5953;52.372;9.918;2024-03-17T01:35:12;15.67;;;3.23;;
11791;SDS011;5953;52.372;9.918;2024-03-17T01:37:39;11.97;;;2.90;;
11791;SDS011;5953;52.372;9.918;2024-03-17T01:40:05;8.57;;;3.30;;
11791;SDS011;5953;52.372;9.918;2024-03-17T01:42:34;13.30;;;3.13;;
11791;SDS011;5953;52.372;9.918;2024-03-17T01:45:00;7.40;;;3.23;;
11791;SDS011;5953;52.372;9.918;2024-03-17T01:47:27;10.63;;;3.80;;
11791;SDS011;5953;52.372;9.918;2024-03-17T01:49:54;13.77;;;3.80;;
11791;SDS011;5953;52.372;9.918;2024-03-17T01:52:21;8.60;;;3.67;;
11791;SDS011;5953;52.372;9.918;2024-03-17T01:54:47;15.77;;;4.00;;
11791;SDS011;5953;52.372;9.918;2024-03-17T01:57:14;10.07;;;3.23;;
11791;SDS011;5953;52.372;9.918;2024-03-17T01:59:40;10.27;;;2.83;;
11791;SDS011;5953;52.372;9.918;2024-03-17T02:02:10;9.77;;;3.20;;
11791;SDS011;5953;52.372;9.918;2024-03-17T02:04:36;10.97;;;3.40;;
11791;SDS011;5953;52.372;9.918;2024-03-17T02:07:04;12.67;;;4.23;;
11791;SDS011;5953;52.372;9.918;2024-03-17T02:09:30;14.97;;;5.37;;
11791;SDS011;5953;52.372;9.918;2024-03-17T02:11:57;11.40;;;4.97;;
11791;SDS011;5953;52.372;9.918;2024-03-17T02:14:22;11.20;;;4.50;;
11791;SDS011;5953;52.372;9.918;2024-03-17T02:16:49;14.23;;;4.30;;
11791;SDS011;5953;52.372;9.918;2024-03-17T02:19:15;10.37;;;3.00;;
11791;SDS011;5953;52.372;9.918;2024-03-17T02:21:42;7.17;;;3.20;;
11791;SDS011;5953;52.372;9.918;2024-03-17T02:24:09;8.83;;;3.17;;
11791;SDS011;5953;52.372;9.918;2024-03-17T02:26:36;8.93;;;3.30;;
11791;SDS011;5953;52.372;9.918;2024-03-17T02:29:03;12.47;;;3.40;;
11791;SDS011;5953;52.372;9.918;2024-03-17T02:31:30;11.93;;;3.83;;
11791;SDS011;5953;52.372;9.918;2024-03-17T02:33:56;14.70;;;4.27;;
11791;SDS011;5953;52.372;9.918;2024-03-17T02:36:22;11.83;;;4.60;;
11791;SDS011;5953;52.372;9.918;2024-03-17T02:38:48;10.57;;;4.73;;
11791;SDS011;5953;52.372;9.918;2024-03-17T02:41:34;9.40;;;4.23;;
11791;SDS011;5953;52.372;9.918;2024-03-17T02:44:01;6.67;;;3.80;;
11791;SDS011;5953;52.372;9.918;2024-03-17T02:46:26;11.43;;;4.10;;
11791;SDS011;5953;52.372;9.918;2024-03-17T02:48:54;11.23;;;4.03;;
11791;SDS011;5953;52.372;9.918;2024-03-17T02:51:21;10.70;;;3.50;;
11791;SDS011;5953;52.372;9.918;2024-03-17T02:53:49;10.27;;;3.33;;
11791;SDS011;5953;52.372;9.918;2024-03-17T02:56:17;7.80;;;3.10;;
11791;SDS011;5953;52.372;9.918;2024-03-17T02:58:46;13.50;;;2.80;;
11791;SDS011;5953;52.372;9.918;2024-03-17T03:01:14;9.47;;;3.03;;
11791;SDS011;5953;52.372;9.918;2024-03-17T03:03:41;7.50;;;2.43;;
11791;SDS011;5953;52.372;9.918;2024-03-17T03:06:10;8.37;;;2.97;;
11791;SDS011;5953;52.372;9.918;2024-03-17T03:08:38;9.27;;;2.90;;
11791;SDS011;5953;52.372;9.918;2024-03-17T03:11:06;9.07;;;2.53;;
11791;SDS011;5953;52.372;9.918;2024-03-17T03:13:36;6.23;;;2.30;;
11791;SDS011;5953;52.372;9.918;2024-03-17T03:16:05;9.50;;;3.20;;
11791;SDS011;5953;52.372;9.918;2024-03-17T03:18:33;6.67;;;2.50;;
11791;SDS011;5953;52.372;9.918;2024-03-17T03:21:00;7.40;;;3.10;;
11791;SDS011;5953;52.372;9.918;2024-03-17T03:23:26;6.30;;;2.87;;
11791;SDS011;5953;52.372;9.918;2024-03-17T03:25:56;11.33;;;2.97;;
11791;SDS011;5953;52.372;9.918;2024-03-17T03:28:24;6.30;;;3.00;;
11791;SDS011;5953;52.372;9.918;2024-03-17T03:30:51;5.67;;;2.50;;
11791;SDS011;5953;52.372;9.918;2024-03-17T03:33:19;8.43;;;3.10;;
11791;SDS011;5953;52.372;9.918;2024-03-17T03:35:46;8.70;;;2.77;;
11791;SDS011;5953;52.372;9.918;2024-03-17T03:38:14;9.03;;;3.07;;
11791;SDS011;5953;52.372;9.918;2024-03-17T03:40:41;7.47;;;3.47;;
11791;SDS011;5953;52.372;9.918;2024-03-17T03:43:08;7.03;;;2.60;;
11791;SDS011;5953;52.372;9.918;2024-03-17T03:45:35;7.77;;;2.80;;
11791;SDS011;5953;52.372;9.918;2024-03-17T03:48:02;5.13;;;2.70;;
11791;SDS011;5953;52.372;9.918;2024-03-17T03:50:31;7.93;;;2.83;;
11791;SDS011;5953;52.372;9.918;2024-03-17T03:52:58;10.60;;;3.27;;
11791;SDS011;5953;52.372;9.918;2024-03-17T03:55:25;8.17;;;3.40;;
11791;SDS011;5953;52.372;9.918;2024-03-17T03:57:52;6.83;;;2.67;;
11791;SDS011;5953;52.372;9.918;2024-03-17T04:00:18;5.07;;;2.57;;
11791;SDS011;5953;52.372;9.918;2024-03-17T04:02:47;7.83;;;2.57;;
11791;SDS011;5953;52.372;9.918;2024-03-17T04:05:15;5.00;;;2.57;;
11791;SDS011;5953;52.372;9.918;2024-03-17T04:07:44;8.13;;;2.80;;
11791;SDS011;5953;52.372;9.918;2024-03-17T04:10:12;10.43;;;2.50;;
11791;SDS011;5953;52.372;9.918;2024-03-17T04:12:39;10.50;;;3.97;;
11791;SDS011;5953;52.372;9.918;2024-03-17T04:15:06;6.90;;;2.67;;
11791;SDS011;5953;52.372;9.918;2024-03-17T04:17:35;11.77;;;3.10;;
11791;SDS011;5953;52.372;9.918;2024-03-17T04:20:02;6.63;;;2.60;;
11791;SDS011;5953;52.372;9.918;2024-03-17T04:22:30;3.97;;;2.70;;
11791;SDS011;5953;52.372;9.918;2024-03-17T04:24:58;8.40;;;2.90;;
11791;SDS011;5953;52.372;9.918;2024-03-17T04:27:25;8.43;;;2.73;;
11791;SDS011;5953;52.372;9.918;2024-03-17T04:29:53;7.90;;;2.93;;
11791;SDS011;5953;52.372;9.918;2024-03-17T04:32:20;10.00;;;2.77;;
11791;SDS011;5953;52.372;9.918;2024-03-17T04:34:47;10.10;;;2.97;;
11791;SDS011;5953;52.372;9.918;2024-03-17T04:37:14;6.03;;;2.40;;
11791;SDS011;5953;52.372;9.918;2024-03-17T04:39:42;5.53;;;2.70;;
11791;SDS011;5953;52.372;9.918;2024-03-17T04:42:11;6.73;;;2.47;;
11791;SDS011;5953;52.372;9.918;2024-03-17T04:44:40;6.03;;;2.90;;
11791;SDS011;5953;52.372;9.918;2024-03-17T04:47:06;9.93;;;2.60;;
11791;SDS011;5953;52.372;9.918;2024-03-17T04:49:34;7.23;;;2.73;;
11791;SDS011;5953;52.372;9.918;2024-03-17T04:52:02;8.10;;;3.50;;
11791;SDS011;5953;52.372;9.918;2024-03-17T04:54:30;5.07;;;3.10;;
11791;SDS011;5953;52.372;9.918;2024-03-17T04:56:57;5.33;;;3.57;;
11791;SDS011;5953;52.372;9.918;2024-03-17T04:59:25;5.67;;;3.27;;
11791;SDS011;5953;52.372;9.918;2024-03-17T05:01:52;6.63;;;3.27;;
11791;SDS011;5953;52.372;9.918;2024-03-17T05:04:19;10.43;;;3.17;;
11791;SDS011;5953;52.372;9.918;2024-03-17T05:06:48;6.73;;;3.17;;
11791;SDS011;5953;52.372;9.918;2024-03-17T05:09:15;5.97;;;2.63;;
11791;SDS011;5953;52.372;9.918;2024-03-17T05:11:42;5.30;;;3.17;;
11791;SDS011;5953;52.372;9.918;2024-03-17T05:14:09;6.60;;;3.27;;
11791;SDS011;5953;52.372;9.918;2024-03-17T05:16:38;5.47;;;2.50;;
11791;SDS011;5953;52.372;9.918;2024-03-17T05:19:04;5.97;;;3.00;;
11791;SDS011;5953;52.372;9.918;2024-03-17T05:21:33;6.17;;;2.90;;
11791;SDS011;5953;52.372;9.918;2024-03-17T05:24:00;6.33;;;3.13;;
11791;SDS011;5953;52.372;9.918;2024-03-17T05:26:29;9.63;;;3.87;;
11791;SDS011;5953;52.372;9.918;2024-03-17T05:28:56;6.77;;;3.10;;
11791;SDS011;5953;52.372;9.918;2024-03-17T05:31:23;7.03;;;3.30;;
11791;SDS011;5953;52.372;9.918;2024-03-17T05:33:51;6.03;;;3.13;;
11791;SDS011;5953;52.372;9.918;2024-03-17T05:36:18;5.20;;;2.77;;
11791;SDS011;5953;52.372;9.918;2024-03-17T05:38:46;7.37;;;3.40;;
11791;SDS011;5953;52.372;9.918;2024-03-17T05:41:14;6.47;;;2.80;;
11791;SDS011;5953;52.372;9.918;2024-03-17T05:43:41;8.50;;;2.90;;
11791;SDS011;5953;52.372;9.918;2024-03-17T05:46:08;4.27;;;2.83;;
11791;SDS011;5953;52.372;9.918;2024-03-17T05:48:37;7.40;;;3.53;;
11791;SDS011;5953;52.372;9.918;2024-03-17T05:51:07;4.83;;;2.87;;
11791;SDS011;5953;52.372;9.918;2024-03-17T05:53:35;7.63;;;2.63;;
11791;SDS011;5953;52.372;9.918;2024-03-17T05:56:05;14.33;;;3.70;;
11791;SDS011;5953;52.372;9.918;2024-03-17T05:58:34;6.90;;;3.10;;
11791;SDS011;5953;52.372;9.918;2024-03-17T06:01:02;6.10;;;2.87;;
11791;SDS011;5953;52.372;9.918;2024-03-17T06:03:30;6.63;;;3.40;;
11791;SDS011;5953;52.372;9.918;2024-03-17T06:05:58;6.10;;;3.47;;
11791;SDS011;5953;52.372;9.918;2024-03-17T06:08:26;10.20;;;3.17;;
11791;SDS011;5953;52.372;9.918;2024-03-17T06:10:53;6.73;;;3.80;;
11791;SDS011;5953;52.372;9.918;2024-03-17T06:13:22;7.93;;;3.37;;
11791;SDS011;5953;52.372;9.918;2024-03-17T06:15:50;5.70;;;3.70;;
11791;SDS011;5953;52.372;9.918;2024-03-17T06:18:16;9.50;;;3.50;;
11791;SDS011;5953;52.372;9.918;2024-03-17T06:20:44;6.60;;;3.33;;
11791;SDS011;5953;52.372;9.918;2024-03-17T06:23:12;6.37;;;3.63;;
11791;SDS011;5953;52.372;9.918;2024-03-17T06:25:41;11.57;;;3.83;;
11791;SDS011;5953;52.372;9.918;2024-03-17T06:28:09;12.17;;;4.23;;
11791;SDS011;5953;52.372;9.918;2024-03-17T06:30:39;8.37;;;4.17;;
11791;SDS011;5953;52.372;9.918;2024-03-17T06:33:06;10.90;;;4.47;;
11791;SDS011;5953;52.372;9.918;2024-03-17T06:35:35;7.23;;;4.40;;
11791;SDS011;5953;52.372;9.918;2024-03-17T06:38:02;8.97;;;4.03;;
11791;SDS011;5953;52.372;9.918;2024-03-17T06:40:29;7.93;;;4.00;;
11791;SDS011;5953;52.372;9.918;2024-03-17T06:42:58;7.50;;;5.50;;
11791;SDS011;5953;52.372;9.918;2024-03-17T06:45:25;8.57;;;4.90;;
11791;SDS011;5953;52.372;9.918;2024-03-17T06:47:51;9.80;;;5.20;;
11791;SDS011;5953;52.372;9.918;2024-03-17T06:50:18;8.27;;;5.43;;
11791;SDS011;5953;52.372;9.918;2024-03-17T06:52:45;8.73;;;5.67;;
11791;SDS011;5953;52.372;9.918;2024-03-17T06:55:12;5.83;;;5.00;;
11791;SDS011;5953;52.372;9.918;2024-03-17T06:57:41;11.43;;;5.10;;
11791;SDS011;5953;52.372;9.918;2024-03-17T07:00:10;8.40;;;5.10;;
11791;SDS011;5953;52.372;9.918;2024-03-17T07:02:39;8.77;;;5.03;;
11791;SDS011;5953;52.372;9.918;2024-03-17T07:05:11;7.40;;;4.90;;
11791;SDS011;5953;52.372;9.918;2024-03-17T07:07:40;12.40;;;5.13;;
11791;SDS011;5953;52.372;9.918;2024-03-17T07:10:07;6.50;;;4.20;;
11791;SDS011;5953;52.372;9.918;2024-03-17T07:12:36;6.53;;;4.53;;
11791;SDS011;5953;52.372;9.918;2024-03-17T07:15:03;8.00;;;4.53;;
11791;SDS011;5953;52.372;9.918;2024-03-17T07:17:32;11.63;;;5.17;;
11791;SDS011;5953;52.372;9.918;2024-03-17T07:19:59;9.77;;;4.40;;
11791;SDS011;5953;52.372;9.918;2024-03-17T07:22:26;8.70;;;4.17;;
11791;SDS011;5953;52.372;9.918;2024-03-17T07:24:54;8.87;;;4.37;;
11791;SDS011;5953;52.372;9.918;2024-03-17T07:27:25;10.03;;;4.40;;
11791;SDS011;5953;52.372;9.918;2024-03-17T07:29:52;6.33;;;3.97;;
11791;SDS011;5953;52.372;9.918;2024-03-17T07:32:19;5.17;;;4.00;;
11791;SDS011;5953;52.372;9.918;2024-03-17T07:34:47;9.40;;;4.23;;
11791;SDS011;5953;52.372;9.918;2024-03-17T07:37:15;6.10;;;3.50;;
11791;SDS011;5953;52.372;9.918;2024-03-17T07:39:42;6.90;;;4.10;;
11791;SDS011;5953;52.372;9.918;2024-03-17T07:42:08;9.13;;;4.50;;
11791;SDS011;5953;52.372;9.918;2024-03-17T07:44:37;7.20;;;4.63;;
11791;SDS011;5953;52.372;9.918;2024-03-17T07:47:03;9.10;;;3.93;;
11791;SDS011;5953;52.372;9.918;2024-03-17T07:49:30;6.27;;;3.97;;
11791;SDS011;5953;52.372;9.918;2024-03-17T07:51:58;5.23;;;3.90;;
11791;SDS011;5953;52.372;9.918;2024-03-17T07:54:25;7.67;;;4.43;;
11791;SDS011;5953;52.372;9.918;2024-03-17T07:56:52;11.83;;;4.10;;
11791;SDS011;5953;52.372;9.918;2024-03-17T07:59:20;10.93;;;4.43;;
11791;SDS011;5953;52.372;9.918;2024-03-17T08:01:47;11.03;;;3.70;;
11791;SDS011;5953;52.372;9.918;2024-03-17T08:04:14;8.10;;;4.40;;
11791;SDS011;5953;52.372;9.918;2024-03-17T08:06:41;11.37;;;3.87;;
11791;SDS011;5953;52.372;9.918;2024-03-17T08:09:09;15.50;;;4.57;;
11791;SDS011;5953;52.372;9.918;2024-03-17T08:11:37;11.27;;;3.80;;
11791;SDS011;5953;52.372;9.918;2024-03-17T08:14:09;13.13;;;3.80;;
11791;SDS011;5953;52.372;9.918;2024-03-17T08:16:40;11.17;;;3.73;;
11791;SDS011;5953;52.372;9.918;2024-03-17T08:19:06;10.87;;;2.30;;
11791;SDS011;5953;52.372;9.918;2024-03-17T08:21:34;12.17;;;2.60;;
11791;SDS011;5953;52.372;9.918;2024-03-17T08:24:00;9.60;;;2.57;;
11791;SDS011;5953;52.372;9.918;2024-03-17T08:26:29;8.60;;;1.90;;
11791;SDS011;5953;52.372;9.918;2024-03-17T08:28:56;9.83;;;2.50;;
11791;SDS011;5953;52.372;9.918;2024-03-17T08:31:23;9.80;;;2.20;;
11791;SDS011;5953;52.372;9.918;2024-03-17T08:33:52;12.50;;;2.80;;
11791;SDS011;5953;52.372;9.918;2024-03-17T08:36:19;9.53;;;2.37;;
11791;SDS011;5953;52.372;9.918;2024-03-17T08:38:49;8.17;;;2.07;;
11791;SDS011;5953;52.372;9.918;2024-03-17T08:41:18;13.20;;;3.33;;
11791;SDS011;5953;52.372;9.918;2024-03-17T08:43:48;11.90;;;2.80;;
11791;SDS011;5953;52.372;9.918;2024-03-17T08:46:14;18.13;;;3.67;;
11791;SDS011;5953;52.372;9.918;2024-03-17T08:48:41;8.70;;;3.13;;
11791;SDS011;5953;52.372;9.918;2024-03-17T08:51:13;8.23;;;2.47;;
11791;SDS011;5953;52.372;9.918;2024-03-17T08:53:40;8.50;;;1.73;;
11791;SDS011;5953;52.372;9.918;2024-03-17T08:56:07;10.10;;;2.60;;
11791;SDS011;5953;52.372;9.918;2024-03-17T08:58:36;9.03;;;2.23;;
11791;SDS011;5953;52.372;9.918;2024-03-17T09:01:04;10.93;;;2.90;;
11791;SDS011;5953;52.372;9.918;2024-03-17T09:03:32;10.50;;;2.57;;
11791;SDS011;5953;52.372;9.918;2024-03-17T09:05:59;12.47;;;2.30;;
11791;SDS011;5953;52.372;9.918;2024-03-17T09:08:26;8.77;;;2.50;;
11791;SDS011;5953;52.372;9.918;2024-03-17T09:10:55;8.93;;;2.37;;
11791;SDS011;5953;52.372;9.918;2024-03-17T09:13:24;6.97;;;2.30;;
11791;SDS011;5953;52.372;9.918;2024-03-17T09:15:53;10.33;;;2.63;;
11791;SDS011;5953;52.372;9.918;2024-03-17T09:18:26;9.60;;;2.13;;
11791;SDS011;5953;52.372;9.918;2024-03-17T09:20:57;8.47;;;2.17;;
11791;SDS011;5953;52.372;9.918;2024-03-17T09:23:25;8.63;;;2.40;;
11791;SDS011;5953;52.372;9.918;2024-03-17T09:25:57;8.30;;;2.50;;
11791;SDS011;5953;52.372;9.918;2024-03-17T09:28:24;13.00;;;2.70;;
11791;SDS011;5953;52.372;9.918;2024-03-17T09:30:51;7.93;;;2.87;;
11791;SDS011;5953;52.372;9.918;2024-03-17T09:33:19;5.00;;;2.10;;
11791;SDS011;5953;52.372;9.918;2024-03-17T09:35:53;7.50;;;2.43;;
11791;SDS011;5953;52.372;9.918;2024-03-17T09:38:25;8.07;;;2.37;;
11791;SDS011;5953;52.372;9.918;2024-03-17T09:40:55;4.93;;;1.97;;
11791;SDS011;5953;52.372;9.918;2024-03-17T09:43:25;10.10;;;3.17;;
11791;SDS011;5953;52.372;9.918;2024-03-17T09:45:53;10.40;;;2.73;;
11791;SDS011;5953;52.372;9.918;2024-03-17T09:48:24;7.20;;;2.50;;
11791;SDS011;5953;52.372;9.918;2024-03-17T09:50:54;11.40;;;2.70;;
11791;SDS011;5953;52.372;9.918;2024-03-17T09:53:23;6.03;;;2.43;;
11791;SDS011;5953;52.372;9.918;2024-03-17T09:55:56;11.27;;;3.00;;
11791;SDS011;5953;52.372;9.918;2024-03-17T09:58:25;11.70;;;3.60;;
11791;SDS011;5953;52.372;9.918;2024-03-17T10:00:52;8.83;;;3.37;;
11791;SDS011;5953;52.372;9.918;2024-03-17T10:06:17;17.43;;;3.70;;
11791;SDS011;5953;52.372;9.918;2024-03-17T10:08:45;7.80;;;3.40;;
11791;SDS011;5953;52.372;9.918;2024-03-17T10:11:13;13.77;;;3.83;;
11791;SDS011;5953;52.372;9.918;2024-03-17T10:13:41;14.73;;;3.90;;
11791;SDS011;5953;52.372;9.918;2024-03-17T10:16:22;13.37;;;4.00;;
11791;SDS011;5953;52.372;9.918;2024-03-17T10:18:50;14.27;;;4.30;;
11791;SDS011;5953;52.372;9.918;2024-03-17T10:21:33;11.13;;;3.90;;
11791;SDS011;5953;52.372;9.918;2024-03-17T10:24:04;11.70;;;4.50;;
11791;SDS011;5953;52.372;9.918;2024-03-17T10:26:35;9.50;;;3.87;;
11791;SDS011;5953;52.372;9.918;2024-03-17T10:29:07;12.63;;;4.37;;
11791;SDS011;5953;52.372;9.918;2024-03-17T10:31:45;13.10;;;4.27;;
11791;SDS011;5953;52.372;9.918;2024-03-17T10:34:13;8.63;;;4.47;;
11791;SDS011;5953;52.372;9.918;2024-03-17T10:36:43;8.17;;;4.37;;
11791;SDS011;5953;52.372;9.918;2024-03-17T10:39:16;8.83;;;4.67;;
11791;SDS011;5953;52.372;9.918;2024-03-17T10:41:56;7.30;;;3.93;;
11791;SDS011;5953;52.372;9.918;2024-03-17T10:44:24;10.70;;;4.50;;
11791;SDS011;5953;52.372;9.918;2024-03-17T10:46:51;8.43;;;4.83;;
11791;SDS011;5953;52.372;9.918;2024-03-17T10:49:27;8.47;;;4.53;;
11791;SDS011;5953;52.372;9.918;2024-03-17T10:52:01;11.50;;;5.17;;
11791;SDS011;5953;52.372;9.918;2024-03-17T10:54:29;11.97;;;5.13;;
11791;SDS011;5953;52.372;9.918;2024-03-17T10:57:01;14.70;;;5.27;;
11791;SDS011;5953;52.372;9.918;2024-03-17T10:59:38;13.47;;;5.63;;
11791;SDS011;5953;52.372;9.918;2024-03-17T11:02:16;13.97;;;5.57;;
11791;SDS011;5953;52.372;9.918;2024-03-17T11:04:49;8.80;;;5.57;;
11791;SDS011;5953;52.372;9.918;2024-03-17T11:07:19;12.03;;;4.57;;
11791;SDS011;5953;52.372;9.918;2024-03-17T11:09:47;11.20;;;4.57;;
11791;SDS011;5953;52.372;9.918;2024-03-17T11:18:27;8.10;;;4.93;;
11791;SDS011;5953;52.372;9.918;2024-03-17T11:21:02;12.47;;;4.97;;
11791;SDS011;5953;52.372;9.918;2024-03-17T11:23:37;8.67;;;5.10;;
11791;SDS011;5953;52.372;9.918;2024-03-17T11:26:05;15.13;;;5.33;;
11791;SDS011;5953;52.372;9.918;2024-03-17T11:31:37;9.27;;;4.90;;
11791;SDS011;5953;52.372;9.918;2024-03-17T11:34:25;9.63;;;5.30;;
11791;SDS011;5953;52.372;9.918;2024-03-17T11:36:54;11.70;;;4.63;;
11791;SDS011;5953;52.372;9.918;2024-03-17T11:39:32;9.20;;;4.83;;
11791;SDS011;5953;52.372;9.918;2024-03-17T11:42:36;9.37;;;5.23;;
11791;SDS011;5953;52.372;9.918;2024-03-17T11:45:04;12.20;;;5.50;;
11791;SDS011;5953;52.372;9.918;2024-03-17T11:47:41;11.90;;;5.93;;
11791;SDS011;5953;52.372;9.918;2024-03-17T11:50:08;11.00;;;6.03;;
11791;SDS011;5953;52.372;9.918;2024-03-17T11:52:36;13.03;;;5.23;;
11791;SDS011;5953;52.372;9.918;2024-03-17T11:55:05;12.00;;;5.43;;
11791;SDS011;5953;52.372;9.918;2024-03-17T11:57:41;10.00;;;5.50;;
11791;SDS011;5953;52.372;9.918;2024-03-17T12:00:15;11.37;;;5.17;;
11791;SDS011;5953;52.372;9.918;2024-03-17T12:02:47;10.33;;;5.20;;
11791;SDS011;5953;52.372;9.918;2024-03-17T12:05:14;10.07;;;5.13;;
11791;SDS011;5953;52.372;9.918;2024-03-17T12:07:41;11.37;;;5.83;;
11791;SDS011;5953;52.372;9.918;2024-03-17T12:10:10;10.57;;;5.10;;
11791;SDS011;5953;52.372;9.918;2024-03-17T12:12:38;15.93;;;5.87;;
11791;SDS011;5953;52.372;9.918;2024-03-17T12:15:13;13.53;;;5.67;;
11791;SDS011;5953;52.372;9.918;2024-03-17T12:17:43;10.60;;;5.30;;
11791;SDS011;5953;52.372;9.918;2024-03-17T12:20:16;7.97;;;5.20;;
11791;SDS011;5953;52.372;9.918;2024-03-17T12:22:44;6.70;;;4.87;;
11791;SDS011;5953;52.372;9.918;2024-03-17T12:25:16;9.87;;;5.43;;
11791;SDS011;5953;52.372;9.918;2024-03-17T12:27:44;8.60;;;5.20;;
11791;SDS011;5953;52.372;9.918;2024-03-17T12:30:12;6.70;;;4.47;;
11791;SDS011;5953;52.372;9.918;2024-03-17T12:32:40;7.23;;;5.27;;
11791;SDS011;5953;52.372;9.918;2024-03-17T12:35:11;10.20;;;5.80;;
11791;SDS011;5953;52.372;9.918;2024-03-17T12:37:40;8.60;;;5.07;;
11791;SDS011;5953;52.372;9.918;2024-03-17T12:40:16;10.83;;;5.57;;
11791;SDS011;5953;52.372;9.918;2024-03-17T12:42:47;11.90;;;5.43;;
11791;SDS011;5953;52.372;9.918;2024-03-17T12:45:14;8.23;;;5.10;;
11791;SDS011;5953;52.372;9.918;2024-03-17T12:47:41;12.50;;;5.37;;
11791;SDS011;5953;52.372;9.918;2024-03-17T12:50:13;10.40;;;5.73;;
11791;SDS011;5953;52.372;9.918;2024-03-17T12:52:40;7.93;;;4.93;;
11791;SDS011;5953;52.372;9.918;2024-03-17T12:55:18;9.60;;;5.23;;
11791;SDS011;5953;52.372;9.918;2024-03-17T12:58:06;8.03;;;5.07;;
11791;SDS011;5953;52.372;9.918;2024-03-17T13:00:58;9.17;;;5.77;;
11791;SDS011;5953;52.372;9.918;2024-03-17T13:03:26;10.67;;;5.63;;
11791;SDS011;5953;52.372;9.918;2024-03-17T13:05:55;7.60;;;5.73;;
11791;SDS011;5953;52.372;9.918;2024-03-17T13:08:25;9.87;;;6.30;;
11791;SDS011;5953;52.372;9.918;2024-03-17T13:10:54;9.50;;;5.33;;
11791;SDS011;5953;52.372;9.918;2024-03-17T13:13:21;8.53;;;4.83;;
11791;SDS011;5953;52.372;9.918;2024-03-17T13:15:47;11.33;;;5.40;;
11791;SDS011;5953;52.372;9.918;2024-03-17T13:18:16;7.80;;;4.90;;
11791;SDS011;5953;52.372;9.918;2024-03-17T13:20:45;8.90;;;5.20;;
11791;SDS011;5953;52.372;9.918;2024-03-17T13:23:12;8.63;;;5.13;;
11791;SDS011;5953;52.372;9.918;2024-03-17T13:25:39;8.67;;;4.43;;
11791;SDS011;5953;52.372;9.918;2024-03-17T13:28:10;11.83;;;5.37;;
11791;SDS011;5953;52.372;9.918;2024-03-17T13:30:37;9.00;;;4.90;;
11791;SDS011;5953;52.372;9.918;2024-03-17T13:33:05;12.73;;;5.40;;
11791;SDS011;5953;52.372;9.918;2024-03-17T13:35:34;9.60;;;5.00;;
11791;SDS011;5953;52.372;9.918;2024-03-17T13:38:04;9.67;;;4.87;;
11791;SDS011;5953;52.372;9.918;2024-03-17T13:40:32;8.50;;;4.77;;
11791;SDS011;5953;52.372;9.918;2024-03-17T13:42:59;6.93;;;5.07;;
11791;SDS011;5953;52.372;9.918;2024-03-17T13:45:34;8.30;;;4.53;;
11791;SDS011;5953;52.372;9.918;2024-03-17T13:48:05;8.33;;;4.87;;
11791;SDS011;5953;52.372;9.918;2024-03-17T13:50:36;8.73;;;4.57;;
11791;SDS011;5953;52.372;9.918;2024-03-17T13:53:03;8.87;;;5.37;;
11791;SDS011;5953;52.372;9.918;2024-03-17T13:55:31;9.07;;;4.87;;
11791;SDS011;5953;52.372;9.918;2024-03-17T13:57:59;8.70;;;4.97;;
11791;SDS011;5953;52.372;9.918;2024-03-17T14:00:27;8.20;;;5.27;;
11791;SDS011;5953;52.372;9.918;2024-03-17T14:02:58;7.90;;;5.13;;
11791;SDS011;5953;52.372;9.918;2024-03-17T14:05:25;8.30;;;5.33;;
11791;SDS011;5953;52.372;9.918;2024-03-17T14:07:53;10.07;;;5.30;;
11791;SDS011;5953;52.372;9.918;2024-03-17T14:10:22;9.40;;;4.70;;
11791;SDS011;5953;52.372;9.918;2024-03-17T14:12:49;8.10;;;4.70;;
11791;SDS011;5953;52.372;9.918;2024-03-17T14:15:16;10.97;;;5.37;;
11791;SDS011;5953;52.372;9.918;2024-03-17T14:17:44;7.67;;;5.17;;
11791;SDS011;5953;52.372;9.918;2024-03-17T14:20:13;7.70;;;5.63;;
11791;SDS011;5953;52.372;9.918;2024-03-17T14:22:43;9.70;;;5.13;;
11791;SDS011;5953;52.372;9.918;2024-03-17T14:25:14;9.67;;;4.77;;
11791;SDS011;5953;52.372;9.918;2024-03-17T14:27:41;8.00;;;5.13;;
11791;SDS011;5953;52.372;9.918;2024-03-17T14:30:09;9.57;;;5.50;;
11791;SDS011;5953;52.372;9.918;2024-03-17T14:32:38;7.33;;;4.70;;
11791;SDS011;5953;52.372;9.918;2024-03-17T14:35:06;9.27;;;4.97;;
11791;SDS011;5953;52.372;9.918;2024-03-17T14:37:37;5.63;;;4.40;;
11791;SDS011;5953;52.372;9.918;2024-03-17T14:40:05;8.03;;;5.40;;
11791;SDS011;5953;52.372;9.918;2024-03-17T14:42:39;7.70;;;5.40;;
11791;SDS011;5953;52.372;9.918;2024-03-17T14:45:07;7.97;;;5.10;;
11791;SDS011;5953;52.372;9.918;2024-03-17T14:47:37;10.97;;;4.40;;
11791;SDS011;5953;52.372;9.918;2024-03-17T14:50:18;7.13;;;5.03;;
11791;SDS011;5953;52.372;9.918;2024-03-17T14:52:47;6.50;;;4.73;;
11791;SDS011;5953;52.372;9.918;2024-03-17T14:55:13;7.93;;;4.47;;
11791;SDS011;5953;52.372;9.918;2024-03-17T14:57:41;7.07;;;4.67;;
11791;SDS011;5953;52.372;9.918;2024-03-17T15:00:08;8.20;;;4.90;;
11791;SDS011;5953;52.372;9.918;2024-03-17T15:02:41;8.90;;;5.07;;
11791;SDS011;5953;52.372;9.918;2024-03-17T15:05:08;10.00;;;5.20;;
11791;SDS011;5953;52.372;9.918;2024-03-17T15:07:35;6.67;;;4.53;;
11791;SDS011;5953;52.372;9.918;2024-03-17T15:10:04;6.57;;;4.37;;
11791;SDS011;5953;52.372;9.918;2024-03-17T15:12:32;10.03;;;5.20;;
11791;SDS011;5953;52.372;9.918;2024-03-17T15:14:59;8.17;;;5.33;;
11791;SDS011;5953;52.372;9.918;2024-03-17T15:17:26;7.63;;;4.17;;